Time;durP1;ratioP1;P1;durP2;ratioP2;P2;SDS_P1;SDS_P2;PMS_P1;PMS_P2;Temp;Humidity;BMP_temperature;BMP_pressure;BME280_temperature;BME280_humidity;BME280_pressure;Samples;Min_cycle;Max_cycle;Signal;HPM_P1;HPM_P2
2022/11/28 00:01:17;;;;;;;;;;;;;;;19.20;47.39;100762.81;5120098;27;19931;-44
2022/11/28 00:03:43;;;;;;;;;;;;;;;19.19;47.27;100758.41;5135871;27;19963;-45
2022/11/28 00:06:09;;;;;;;;;;;;;;;19.19;47.16;100764.75;5139224;27;19923;-43
2022/11/28 00:08:35;;;;;;;;;;;;;;;19.20;47.50;100760.06;5138305;27;19923;-44
2022/11/28 00:11:02;;;;;;;;;;;;;;;19.20;47.28;100757.31;5131482;27;19943;-43
2022/11/28 00:13:28;;;;;;;;;;;;;;;19.19;47.55;100753.72;5115324;27;19981;-44
2022/11/28 00:15:55;;;;;;;;;;;;;;;19.20;47.32;100749.84;5136364;27;19924;-43
2022/11/28 00:18:21;;;;;;;;;;;;;;;19.20;47.32;100743.50;5137866;27;19932;-45
2022/11/28 00:20:46;;;;;;;;;;;;;;;19.19;47.49;100748.19;5140168;27;19934;-45
2022/11/28 00:23:12;;;;;;;;;;;;;;;19.19;47.25;100744.63;5136439;27;20279;-45
2022/11/28 00:25:38;;;;;;;;;;;;;;;19.20;47.43;100746.25;5132300;27;19939;-43
2022/11/28 00:28:03;;;;;;;;;;;;;;;19.19;47.17;100748.19;5136344;27;19987;-43
2022/11/28 00:30:29;;;;;;;;;;;;;;;19.19;47.18;100739.09;5139579;27;19923;-45
2022/11/28 00:32:54;;;;;;;;;;;;;;;19.19;47.32;100739.91;5133491;27;19923;-44
2022/11/28 00:35:20;;;;;;;;;;;;;;;19.19;47.30;100730.81;5130838;27;20359;-44
2022/11/28 00:37:45;;;;;;;;;;;;;;;19.18;47.22;100726.41;5132137;27;19927;-43
2022/11/28 00:40:11;;;;;;;;;;;;;;;19.19;47.24;100723.34;5135059;27;19934;-43
2022/11/28 00:42:36;;;;;;;;;;;;;;;19.20;47.15;100718.66;5137511;27;19946;-43
2022/11/28 00:45:02;;;;;;;;;;;;;;;19.19;47.24;100709.56;5122477;27;19923;-43
2022/11/28 00:47:28;;;;;;;;;;;;;;;19.19;47.16;100694.94;5132348;27;19923;-43
2022/11/28 00:49:53;;;;;;;;;;;;;;;19.19;47.29;100708.72;5138340;27;20016;-43
2022/11/28 00:52:19;;;;;;;;;;;;;;;19.19;47.30;100703.22;5136888;27;19930;-45
2022/11/28 00:54:44;;;;;;;;;;;;;;;19.19;47.48;100697.69;5139377;27;19923;-44
2022/11/28 00:57:10;;;;;;;;;;;;;;;19.20;47.40;100696.56;5134104;27;19923;-45
2022/11/28 00:59:36;;;;;;;;;;;;;;;19.19;47.14;100686.66;5136377;27;19923;-44
2022/11/28 01:02:01;;;;;;;;;;;;;;;19.20;47.40;100682.75;5139315;27;19934;-46
2022/11/28 01:04:27;;;;;;;;;;;;;;;19.19;47.23;100681.13;5133689;27;19927;-43
2022/11/28 01:06:52;;;;;;;;;;;;;;;19.18;47.09;100677.53;5134118;27;19995;-44
2022/11/28 01:09:19;;;;;;;;;;;;;;;19.18;47.15;100680.31;5134043;27;20294;-43
2022/11/28 01:11:45;;;;;;;;;;;;;;;19.18;47.50;100690.53;5113744;28;19984;-43
2022/11/28 01:14:11;;;;;;;;;;;;;;;19.19;47.29;100689.41;5136220;27;19963;-45
2022/11/28 01:16:37;;;;;;;;;;;;;;;19.18;47.15;100671.19;5135672;27;19930;-44
2022/11/28 01:19:02;;;;;;;;;;;;;;;19.18;47.33;100674.78;5119941;27;19935;-44
2022/11/28 01:21:28;;;;;;;;;;;;;;;19.18;47.26;100683.06;5138511;27;20379;-44
2022/11/28 01:23:53;;;;;;;;;;;;;;;19.18;47.16;100685.00;5136208;27;19947;-46
2022/11/28 01:26:20;;;;;;;;;;;;;;;19.19;47.47;100689.41;5139443;27;20367;-44
2022/11/28 01:28:46;;;;;;;;;;;;;;;19.18;47.16;100690.53;5137086;27;19935;-44
2022/11/28 01:31:13;;;;;;;;;;;;;;;19.18;47.41;100683.06;5138395;27;19977;-44
2022/11/28 01:33:38;;;;;;;;;;;;;;;19.18;47.20;100683.06;5117832;27;19923;-43
2022/11/28 01:36:04;;;;;;;;;;;;;;;19.18;47.07;100676.72;5146731;27;19942;-43
2022/11/28 01:38:30;;;;;;;;;;;;;;;19.17;47.57;100686.94;5116870;27;20416;-45
2022/11/28 01:40:55;;;;;;;;;;;;;;;19.17;47.10;100667.63;5138746;27;19923;-44
2022/11/28 01:43:22;;;;;;;;;;;;;;;19.17;47.11;100678.66;5141920;27;20395;-43
2022/11/28 01:45:47;;;;;;;;;;;;;;;19.16;47.41;100677.00;5119695;27;19975;-44
2022/11/28 01:48:14;;;;;;;;;;;;;;;19.18;47.18;100673.97;5135175;27;20313;-44
2022/11/28 01:50:39;;;;;;;;;;;;;;;19.17;47.14;100664.84;5135462;27;20361;-45
2022/11/28 01:53:05;;;;;;;;;;;;;;;19.17;47.36;100670.38;5137142;27;20355;-46
2022/11/28 01:55:32;;;;;;;;;;;;;;;19.17;47.17;100662.09;5117847;27;20018;-43
2022/11/28 01:57:58;;;;;;;;;;;;;;;19.17;47.41;100661.25;5116830;28;19973;-44
2022/11/28 02:00:23;;;;;;;;;;;;;;;19.17;47.24;100658.47;5134591;27;19923;-44
2022/11/28 02:02:51;;;;;;;;;;;;;;;19.17;47.34;100647.44;5138333;27;19955;-43
2022/11/28 02:05:17;;;;;;;;;;;;;;;19.17;47.11;100653.81;5124226;27;19962;-43
2022/11/28 02:07:43;;;;;;;;;;;;;;;19.17;47.09;100653.81;5115426;28;19996;-43
2022/11/28 02:10:10;;;;;;;;;;;;;;;19.17;47.19;100661.25;5118155;27;19930;-44
2022/11/28 02:12:39;;;;;;;;;;;;;;;19.17;47.34;100658.47;5119048;27;19990;-44
2022/11/28 02:15:25;;;;;;;;;;;;;;;19.16;47.20;100668.69;5136725;27;19959;-43
2022/11/28 02:17:59;;;;;;;;;;;;;;;19.16;47.37;100677.00;5117813;28;20022;-43
2022/11/28 02:20:44;;;;;;;;;;;;;;;19.16;47.28;100678.94;5115709;28;19923;-43
2022/11/28 02:23:20;;;;;;;;;;;;;;;19.16;47.09;100693.56;5122720;27;19967;-44
2022/11/28 02:26:04;;;;;;;;;;;;;;;19.16;47.25;100688.03;5142934;27;19923;-43
2022/11/28 02:28:40;;;;;;;;;;;;;;;19.18;47.22;100687.75;5132202;27;20025;-43
2022/11/28 02:31:25;;;;;;;;;;;;;;;19.16;47.11;100689.97;5131940;27;20057;-44
2022/11/28 02:33:52;;;;;;;;;;;;;;;19.15;47.33;100669.81;5119088;27;20353;-43
2022/11/28 02:36:19;;;;;;;;;;;;;;;19.17;47.06;100672.28;5115798;27;20292;-45
2022/11/28 02:39:04;;;;;;;;;;;;;;;19.17;47.27;100672.28;5140380;27;19964;-46
2022/11/28 02:41:32;;;;;;;;;;;;;;;19.16;47.07;100667.88;5123511;27;20060;-43
2022/11/28 02:44:01;;;;;;;;;;;;;;;19.16;47.19;100665.94;5114410;27;19970;-44
2022/11/28 02:46:33;;;;;;;;;;;;;;;19.16;47.30;100667.88;5129595;27;19964;-44
2022/11/28 02:49:02;;;;;;;;;;;;;;;19.16;47.17;100663.19;5115727;27;19973;-43
2022/11/28 02:51:32;;;;;;;;;;;;;;;19.16;47.19;100654.91;5139236;27;19964;-45
2022/11/28 02:53:58;;;;;;;;;;;;;;;19.16;47.42;100634.75;5137350;27;19971;-43
2022/11/28 02:56:24;;;;;;;;;;;;;;;19.17;46.97;100630.88;5132354;27;20383;-44
2022/11/28 02:58:49;;;;;;;;;;;;;;;19.16;47.03;100635.59;5126979;27;19967;-43
2022/11/28 03:01:18;;;;;;;;;;;;;;;19.16;47.43;100645.81;5136609;27;19963;-42
2022/11/28 03:04:04;;;;;;;;;;;;;;;19.15;47.04;100647.75;5117396;27;20378;-44
2022/11/28 03:06:49;;;;;;;;;;;;;;;19.16;47.06;100643.84;5124938;27;20015;-46
2022/11/28 03:09:35;;;;;;;;;;;;;;;19.16;47.17;100643.84;5128856;27;19923;-43
2022/11/28 03:12:20;;;;;;;;;;;;;;;19.15;47.11;100641.41;5127844;27;20425;-43
2022/11/28 03:15:02;;;;;;;;;;;;;;;19.15;47.17;100641.41;5118032;27;20056;-45
2022/11/28 03:17:43;;;;;;;;;;;;;;;19.15;47.08;100638.63;5115458;27;20060;-43
2022/11/28 03:20:28;;;;;;;;;;;;;;;19.16;47.18;100659.59;5120638;27;19951;-44
2022/11/28 03:22:57;;;;;;;;;;;;;;;19.15;47.32;100647.75;5118629;27;19978;-44
2022/11/28 03:25:27;;;;;;;;;;;;;;;19.16;47.15;100651.31;5119408;27;20070;-44
2022/11/28 03:27:55;;;;;;;;;;;;;;;19.15;46.98;100646.91;5131794;27;19927;-48
2022/11/28 03:30:23;;;;;;;;;;;;;;;19.15;47.08;100658.78;5132744;27;20379;-43
2022/11/28 03:32:49;;;;;;;;;;;;;;;19.15;47.15;100650.50;5137853;27;19957;-45
2022/11/28 03:35:16;;;;;;;;;;;;;;;19.15;47.43;100647.75;5119787;28;19977;-45
2022/11/28 03:37:44;;;;;;;;;;;;;;;19.16;47.10;100645.81;5136803;27;19934;-43
2022/11/28 03:40:11;;;;;;;;;;;;;;;19.15;46.96;100644.97;5138410;27;19959;-46
2022/11/28 03:42:41;;;;;;;;;;;;;;;19.15;47.04;100642.22;5133178;27;20273;-43
2022/11/28 03:45:08;;;;;;;;;;;;;;;19.16;47.02;100640.28;5116786;27;19970;-47
2022/11/28 03:47:35;;;;;;;;;;;;;;;19.14;47.10;100626.78;5116979;27;20596;-44
2022/11/28 03:50:03;;;;;;;;;;;;;;;19.16;47.42;100632.00;5117413;27;19985;-44
2022/11/28 03:52:31;;;;;;;;;;;;;;;19.15;47.18;100630.34;5135560;27;19967;-43
2022/11/28 03:54:58;;;;;;;;;;;;;;;19.15;47.09;100635.88;5143732;27;20019;-43
2022/11/28 03:57:26;;;;;;;;;;;;;;;19.14;47.24;100640.56;5139876;27;19923;-43
2022/11/28 03:59:52;;;;;;;;;;;;;;;19.14;47.04;100634.25;5138313;27;19963;-43
2022/11/28 04:02:23;;;;;;;;;;;;;;;19.16;46.95;100637.53;5137212;27;19923;-43
2022/11/28 04:05:06;;;;;;;;;;;;;;;19.15;47.17;100630.34;5135742;27;20382;-43
2022/11/28 04:07:35;;;;;;;;;;;;;;;19.15;47.08;100616.56;5114434;27;19966;-44
2022/11/28 04:10:05;;;;;;;;;;;;;;;19.14;47.30;100629.53;5116211;27;19938;-43
2022/11/28 04:12:33;;;;;;;;;;;;;;;19.15;47.11;100635.88;5131802;27;20070;-43
2022/11/28 04:14:59;;;;;;;;;;;;;;;19.14;47.35;100637.81;5112865;27;19967;-46
2022/11/28 04:17:30;;;;;;;;;;;;;;;19.13;47.04;100635.31;5118761;28;20031;-43
2022/11/28 04:19:58;;;;;;;;;;;;;;;19.14;47.24;100640.56;5135226;27;20018;-46
2022/11/28 04:22:26;;;;;;;;;;;;;;;19.14;47.04;100642.53;5132484;27;20349;-46
2022/11/28 04:24:53;;;;;;;;;;;;;;;19.14;47.04;100646.09;5132272;27;19981;-46
2022/11/28 04:27:21;;;;;;;;;;;;;;;19.14;47.08;100645.28;5130156;27;19963;-45
2022/11/28 04:29:47;;;;;;;;;;;;;;;19.14;47.21;100637.81;5138613;27;19958;-45
2022/11/28 04:32:13;;;;;;;;;;;;;;;19.14;47.17;100645.28;5139716;27;20360;-45
2022/11/28 04:34:39;;;;;;;;;;;;;;;19.14;47.21;100656.31;5139013;27;20367;-44
2022/11/28 04:37:05;;;;;;;;;;;;;;;19.14;46.95;100653.56;5117893;27;19931;-44
2022/11/28 04:39:35;;;;;;;;;;;;;;;19.13;46.99;100658.25;5131359;27;20090;-43
2022/11/28 04:42:01;;;;;;;;;;;;;;;19.14;47.38;100670.94;5112376;28;19962;-43
2022/11/28 04:44:35;;;;;;;;;;;;;;;19.14;46.95;100661.84;5115686;27;19966;-45
2022/11/28 04:47:01;;;;;;;;;;;;;;;19.14;47.07;100662.66;5130974;27;19963;-43
2022/11/28 04:49:26;;;;;;;;;;;;;;;19.15;47.32;100652.44;5136245;27;19927;-44
2022/11/28 04:51:53;;;;;;;;;;;;;;;19.13;47.10;100649.97;5134721;27;19931;-43
2022/11/28 04:54:23;;;;;;;;;;;;;;;19.13;47.06;100655.50;5141205;27;20343;-44
2022/11/28 04:56:50;;;;;;;;;;;;;;;19.13;47.02;100651.88;5145490;27;20361;-44
2022/11/28 04:59:16;;;;;;;;;;;;;;;19.13;47.00;100654.66;5143752;27;19988;-44
2022/11/28 05:01:41;;;;;;;;;;;;;;;19.13;47.03;100649.13;5143543;27;20268;-45
2022/11/28 05:04:07;;;;;;;;;;;;;;;19.12;47.03;100651.06;5144267;27;19942;-43
2022/11/28 05:06:33;;;;;;;;;;;;;;;19.13;47.21;100655.50;5139398;27;19935;-44
2022/11/28 05:08:59;;;;;;;;;;;;;;;19.13;47.27;100652.75;5134940;27;20328;-44
2022/11/28 05:11:25;;;;;;;;;;;;;;;19.12;47.01;100648.31;5136248;27;19923;-44
2022/11/28 05:13:50;;;;;;;;;;;;;;;19.13;46.97;100654.66;5119510;27;19976;-44
2022/11/28 05:16:16;;;;;;;;;;;;;;;19.13;46.94;100655.50;5132778;27;19931;-44
2022/11/28 05:18:42;;;;;;;;;;;;;;;19.13;46.96;100649.13;5115941;27;19934;-43
2022/11/28 05:21:07;;;;;;;;;;;;;;;19.13;46.99;100647.22;5123700;27;20014;-43
2022/11/28 05:23:35;;;;;;;;;;;;;;;19.12;47.06;100656.59;5141431;27;19930;-44
2022/11/28 05:26:03;;;;;;;;;;;;;;;19.12;46.98;100651.06;5134335;27;20347;-47
2022/11/28 05:28:29;;;;;;;;;;;;;;;19.13;47.03;100655.50;5136884;27;19962;-43
2022/11/28 05:30:56;;;;;;;;;;;;;;;19.12;47.28;100659.34;5140699;27;19927;-44
2022/11/28 05:33:22;;;;;;;;;;;;;;;19.11;47.10;100654.94;5139476;27;19977;-43
2022/11/28 05:35:47;;;;;;;;;;;;;;;19.12;46.92;100647.47;5141241;27;19931;-45
2022/11/28 05:38:13;;;;;;;;;;;;;;;19.12;47.06;100647.47;5140293;27;19924;-44
2022/11/28 05:40:43;;;;;;;;;;;;;;;19.12;46.88;100653.81;5141689;27;19924;-44
2022/11/28 05:43:09;;;;;;;;;;;;;;;19.12;47.08;100653.81;5136054;27;20033;-44
2022/11/28 05:45:38;;;;;;;;;;;;;;;19.11;47.24;100657.72;5137151;27;19923;-44
2022/11/28 05:48:03;;;;;;;;;;;;;;;19.11;47.25;100641.16;5141911;27;19983;-43
2022/11/28 05:50:29;;;;;;;;;;;;;;;19.13;47.27;100652.75;5147812;27;20388;-43
2022/11/28 05:52:54;;;;;;;;;;;;;;;19.12;47.06;100648.31;5140959;27;20393;-46
2022/11/28 05:55:20;;;;;;;;;;;;;;;19.11;46.90;100649.44;5136685;27;19928;-44
2022/11/28 05:57:46;;;;;;;;;;;;;;;19.11;46.87;100646.66;5139058;27;19927;-45
2022/11/28 06:00:13;;;;;;;;;;;;;;;19.12;46.95;100641.97;5140856;27;19930;-44
2022/11/28 06:02:38;;;;;;;;;;;;;;;19.11;46.96;100637.56;5137210;27;19978;-43
2022/11/28 06:05:04;;;;;;;;;;;;;;;19.12;46.94;100647.47;5131230;27;19923;-45
2022/11/28 06:07:50;;;;;;;;;;;;;;;19.11;47.06;100637.56;5119007;28;20265;-44
2022/11/28 06:10:15;;;;;;;;;;;;;;;19.11;47.02;100632.03;5113126;27;19930;-43
2022/11/28 06:12:41;;;;;;;;;;;;;;;19.12;47.19;100628.16;5134647;27;19928;-44
2022/11/28 06:15:07;;;;;;;;;;;;;;;19.10;47.04;100617.41;5135306;27;19923;-44
2022/11/28 06:17:32;;;;;;;;;;;;;;;19.12;47.25;100608.84;5136166;27;20085;-43
2022/11/28 06:19:58;;;;;;;;;;;;;;;19.11;46.86;100605.25;5127988;27;19924;-45
2022/11/28 06:22:23;;;;;;;;;;;;;;;19.11;47.11;100602.50;5130709;27;19931;-43
2022/11/28 06:24:49;;;;;;;;;;;;;;;19.11;47.05;100601.69;5134322;27;20003;-43
2022/11/28 06:27:14;;;;;;;;;;;;;;;19.10;46.97;100592.56;5135739;27;19927;-43
2022/11/28 06:29:40;;;;;;;;;;;;;;;19.11;46.86;100596.97;5127932;27;19931;-45
2022/11/28 06:32:06;;;;;;;;;;;;;;;19.11;47.22;100609.97;5116449;27;20108;-43
2022/11/28 06:34:32;;;;;;;;;;;;;;;19.11;47.20;100608.03;5131730;27;19972;-43
2022/11/28 06:36:57;;;;;;;;;;;;;;;19.10;47.33;100614.66;5132921;27;19931;-43
2022/11/28 06:39:23;;;;;;;;;;;;;;;19.11;46.98;100619.06;5129813;27;19923;-44
2022/11/28 06:41:48;;;;;;;;;;;;;;;19.10;47.19;100619.38;5129146;27;19923;-44
2022/11/28 06:44:14;;;;;;;;;;;;;;;19.10;47.14;100617.41;5133674;27;19927;-43
2022/11/28 06:46:40;;;;;;;;;;;;;;;19.09;47.23;100615.78;5111313;28;20018;-42
2022/11/28 06:49:06;;;;;;;;;;;;;;;19.10;47.29;100613.84;5111197;27;19923;-46
2022/11/28 06:51:31;;;;;;;;;;;;;;;19.17;46.87;100626.22;5127929;27;19931;-50
2022/11/28 06:53:57;;;;;;;;;;;;;;;19.20;47.06;100630.31;5129733;27;19931;-55
2022/11/28 06:56:22;;;;;;;;;;;;;;;19.23;48.26;100624.22;5122093;27;19930;-45
2022/11/28 06:58:56;;;;;;;;;;;;;;;19.21;48.15;100635.56;5104483;27;19923;-42
2022/11/28 07:01:22;;;;;;;;;;;;;;;19.20;48.62;100642.19;5108342;27;20018;-43
2022/11/28 07:03:47;;;;;;;;;;;;;;;19.20;48.33;100633.06;5129567;27;21091;-44
2022/11/28 07:06:14;;;;;;;;;;;;;;;19.20;48.34;100636.66;5104232;27;19968;-43
2022/11/28 07:08:40;;;;;;;;;;;;;;;19.18;48.28;100630.63;5122856;27;20390;-45
2022/11/28 07:11:11;;;;;;;;;;;;;;;19.19;48.21;100639.72;5138549;27;19927;-43
2022/11/28 07:13:36;;;;;;;;;;;;;;;19.19;48.31;100636.94;5129791;27;19927;-44
2022/11/28 07:16:02;;;;;;;;;;;;;;;19.19;48.34;100635.00;5117147;27;20092;-43
2022/11/28 07:18:27;;;;;;;;;;;;;;;19.19;48.07;100635.00;5134062;27;19927;-44
2022/11/28 07:20:53;;;;;;;;;;;;;;;19.20;48.12;100628.38;5136892;27;20022;-44
2022/11/28 07:23:18;;;;;;;;;;;;;;;19.20;48.17;100638.59;5133655;27;20328;-44
2022/11/28 07:25:44;;;;;;;;;;;;;;;19.20;48.08;100636.66;5139203;27;19923;-47
2022/11/28 07:28:10;;;;;;;;;;;;;;;19.21;48.13;100640.25;5136760;27;19923;-46
2022/11/28 07:30:35;;;;;;;;;;;;;;;19.20;48.07;100647.69;5130222;27;19930;-44
2022/11/28 07:33:01;;;;;;;;;;;;;;;19.21;48.09;100645.75;5130146;27;19934;-43
2022/11/28 07:35:26;;;;;;;;;;;;;;;19.21;47.99;100646.59;5134800;27;19923;-44
2022/11/28 07:37:52;;;;;;;;;;;;;;;19.22;47.92;100641.91;5131772;27;20378;-43
2022/11/28 07:40:19;;;;;;;;;;;;;;;19.22;47.80;100639.16;5123873;27;19954;-43
2022/11/28 07:42:44;;;;;;;;;;;;;;;19.22;47.80;100641.91;5108473;27;19961;-43
2022/11/28 07:45:10;;;;;;;;;;;;;;;19.23;47.95;100652.66;5101069;27;19954;-45
2022/11/28 07:47:36;;;;;;;;;;;;;;;19.23;47.99;100655.41;5119768;27;19938;-44
2022/11/28 07:50:01;;;;;;;;;;;;;;;19.29;48.23;100650.66;5125919;27;21223;-50
2022/11/28 07:52:27;;;;;;;;;;;;;;;19.36;48.50;100642.06;5133553;27;19930;-58
2022/11/28 07:54:52;;;;;;;;;;;;;;;19.35;48.51;100641.25;5134153;27;19924;-45
2022/11/28 07:57:18;;;;;;;;;;;;;;;19.35;48.91;100645.94;5127484;27;19968;-44
2022/11/28 07:59:43;;;;;;;;;;;;;;;19.33;48.54;100646.22;5116400;27;19927;-46
2022/11/28 08:02:10;;;;;;;;;;;;;;;19.32;48.94;100639.06;5104787;27;20216;-44
2022/11/28 08:04:36;;;;;;;;;;;;;;;19.33;48.57;100648.16;5094798;27;19923;-47
2022/11/28 08:07:02;;;;;;;;;;;;;;;19.34;47.72;100652.56;5092429;27;19931;-43
2022/11/28 08:09:28;;;;;;;;;;;;;;;19.34;48.45;100652.56;5109025;27;20187;-44
2022/11/28 08:11:53;;;;;;;;;;;;;;;19.32;48.23;100657.56;5113261;27;20481;-44
2022/11/28 08:14:19;;;;;;;;;;;;;;;19.33;48.50;100662.78;5117865;27;19927;-43
2022/11/28 08:16:45;;;;;;;;;;;;;;;19.32;48.43;100661.16;5116412;27;20166;-44
2022/11/28 08:19:10;;;;;;;;;;;;;;;19.33;47.61;100668.31;5117737;27;19931;-43
2022/11/28 08:21:36;;;;;;;;;;;;;;;19.33;47.04;100664.72;5118076;27;20078;-44
2022/11/28 08:24:02;;;;;;;;;;;;;;;19.33;48.29;100661.97;5120363;27;19935;-43
2022/11/28 08:26:28;;;;;;;;;;;;;;;19.33;47.58;100648.97;5124790;27;20287;-44
2022/11/28 08:28:56;;;;;;;;;;;;;;;19.34;47.97;100660.84;5126691;27;20276;-44
2022/11/28 08:31:22;;;;;;;;;;;;;;;19.33;47.98;100657.25;5103982;27;19967;-43
2022/11/28 08:33:48;;;;;;;;;;;;;;;19.33;47.87;100665.53;5105971;27;20367;-45
2022/11/28 08:36:15;;;;;;;;;;;;;;;19.33;47.40;100662.78;5103945;28;20430;-45
2022/11/28 08:38:41;;;;;;;;;;;;;;;19.32;48.05;100661.16;5124092;27;20026;-43
2022/11/28 08:41:16;;;;;;;;;;;;;;;19.34;48.08;100669.13;5128947;27;19993;-47
2022/11/28 08:43:42;;;;;;;;;;;;;;;19.34;48.18;100664.44;5123916;27;20006;-45
2022/11/28 08:46:09;;;;;;;;;;;;;;;19.35;47.70;100662.53;5126282;27;19930;-43
2022/11/28 08:48:35;;;;;;;;;;;;;;;19.35;47.65;100668.03;5106030;27;20230;-43
2022/11/28 08:51:01;;;;;;;;;;;;;;;19.36;47.50;100658.63;5100002;28;20265;-44
2022/11/28 08:53:26;;;;;;;;;;;;;;;19.36;47.73;100659.44;5122027;27;19931;-46
2022/11/28 08:55:52;;;;;;;;;;;;;;;19.36;47.19;100669.69;5122462;27;20829;-46
2022/11/28 08:58:17;;;;;;;;;;;;;;;19.37;47.62;100669.38;5124685;27;19923;-45
2022/11/28 09:00:43;;;;;;;;;;;;;;;19.36;47.67;100669.69;5123784;27;20146;-43
2022/11/28 09:03:11;;;;;;;;;;;;;;;19.35;47.64;100671.63;5108091;27;19927;-45
2022/11/28 09:05:37;;;;;;;;;;;;;;;19.35;47.80;100674.38;5107137;27;20028;-44
2022/11/28 09:08:02;;;;;;;;;;;;;;;19.36;47.42;100670.50;5117026;27;20046;-44
2022/11/28 09:10:28;;;;;;;;;;;;;;;19.36;47.50;100675.19;5121726;27;19935;-45
2022/11/28 09:12:53;;;;;;;;;;;;;;;19.34;47.87;100669.94;5114352;27;19927;-46
2022/11/28 09:15:19;;;;;;;;;;;;;;;19.34;47.81;100680.16;5114697;27;19930;-46
2022/11/28 09:17:45;;;;;;;;;;;;;;;19.34;48.29;100683.75;5116498;27;20455;-45
2022/11/28 09:20:10;;;;;;;;;;;;;;;19.34;47.90;100678.22;5117917;27;21296;-45
2022/11/28 09:22:36;;;;;;;;;;;;;;;19.35;47.67;100677.16;5119968;27;19923;-45
2022/11/28 09:25:01;;;;;;;;;;;;;;;19.34;47.98;100678.22;5121928;27;19976;-43
2022/11/28 09:27:27;;;;;;;;;;;;;;;19.35;47.47;100688.19;5122800;27;19931;-43
2022/11/28 09:29:53;;;;;;;;;;;;;;;19.35;47.24;100685.44;5093831;27;19927;-45
2022/11/28 09:32:18;;;;;;;;;;;;;;;19.30;47.37;100691.00;5122626;27;20538;-45
2022/11/28 09:34:44;;;;;;;;;;;;;;;19.34;46.93;100693.97;5112703;27;19973;-47
2022/11/28 09:37:09;;;;;;;;;;;;;;;19.36;47.02;100697.28;5119053;27;19927;-43
2022/11/28 09:39:35;;;;;;;;;;;;;;;19.35;47.12;100695.66;5106056;27;19959;-43
2022/11/28 09:42:29;;;;;;;;;;;;;;;19.37;47.30;100696.19;5105843;27;19932;-43
2022/11/28 09:44:57;;;;;;;;;;;;;;;19.36;47.33;100700.06;5120894;27;20027;-43
2022/11/28 09:47:25;;;;;;;;;;;;;;;19.36;46.90;100703.63;5097415;27;19988;-43
2022/11/28 09:49:53;;;;;;;;;;;;;;;19.37;47.19;100699.75;5099392;27;20027;-44
2022/11/28 09:52:27;;;;;;;;;;;;;;;19.37;47.63;100699.75;5120718;27;19951;-45
2022/11/28 09:55:02;;;;;;;;;;;;;;;19.22;47.21;100700.69;5123165;27;20353;-44
2022/11/28 09:57:48;;;;;;;;;;;;;;;19.32;47.46;100694.28;5104893;27;20011;-44
2022/11/28 10:00:16;;;;;;;;;;;;;;;19.37;46.89;100696.19;5110558;27;20015;-43
2022/11/28 10:03:01;;;;;;;;;;;;;;;19.36;47.74;100689.00;5104465;27;19978;-43
2022/11/28 10:05:41;;;;;;;;;;;;;;;19.40;47.56;100688.16;5107192;27;20652;-44
2022/11/28 10:08:26;;;;;;;;;;;;;;;19.40;47.58;100684.56;5120444;27;19982;-46
2022/11/28 10:10:57;;;;;;;;;;;;;;;19.39;47.65;100692.03;5105379;27;20766;-47
2022/11/28 10:16:08;;;;;;;;;;;;;;;19.39;47.36;100688.44;5148881;27;19953;-41
2022/11/28 10:18:39;;;;;;;;;;;;;;;19.40;47.43;100695.59;5151776;27;20019;-45
2022/11/28 10:21:09;;;;;;;;;;;;;;;19.39;47.27;100680.97;5138534;27;20013;-46
2022/11/28 10:23:39;;;;;;;;;;;;;;;19.39;47.45;100680.97;5158277;27;19931;-43
2022/11/28 10:26:07;;;;;;;;;;;;;;;19.41;47.41;100686.19;5136778;27;20033;-43
2022/11/28 10:28:34;;;;;;;;;;;;;;;19.41;47.18;100680.69;5135741;27;20020;-44
2022/11/28 10:31:04;;;;;;;;;;;;;;;19.40;47.70;100676.28;5151787;27;20061;-47
2022/11/28 10:33:50;;;;;;;;;;;;;;;19.40;47.42;100679.84;5154049;27;19961;-43
2022/11/28 10:36:20;;;;;;;;;;;;;;;19.41;47.48;100675.97;5135272;27;19958;-42
2022/11/28 10:38:45;;;;;;;;;;;;;;;19.41;47.58;100677.91;5144518;27;19974;-43
2022/11/28 10:41:14;;;;;;;;;;;;;;;19.42;47.38;100685.09;5151713;27;19931;-43
2022/11/28 10:43:59;;;;;;;;;;;;;;;19.41;47.79;100678.75;5144004;27;20604;-43
2022/11/28 10:46:36;;;;;;;;;;;;;;;19.41;47.59;100677.91;5131806;27;20019;-44
2022/11/28 10:49:15;;;;;;;;;;;;;;;19.42;47.81;100683.16;5146343;27;19927;-45
2022/11/28 10:52:01;;;;;;;;;;;;;;;19.42;47.81;100683.16;5137354;27;19974;-44
2022/11/28 10:54:46;;;;;;;;;;;;;;;19.42;47.77;100685.91;5134393;27;20001;-46
2022/11/28 10:57:16;;;;;;;;;;;;;;;19.42;47.82;100677.63;5149639;27;19990;-46
2022/11/28 10:59:47;;;;;;;;;;;;;;;19.42;47.51;100672.09;5134658;27;21716;-43
2022/11/28 11:02:32;;;;;;;;;;;;;;;19.42;47.52;100679.56;5143083;27;20037;-43
2022/11/28 11:04:58;;;;;;;;;;;;;;;19.42;47.45;100680.38;5117979;27;19963;-43
2022/11/28 11:07:25;;;;;;;;;;;;;;;19.43;47.59;100682.06;5130889;27;19927;-43
2022/11/28 11:09:56;;;;;;;;;;;;;;;19.42;47.46;100680.38;5116862;27;19927;-44
2022/11/28 11:12:24;;;;;;;;;;;;;;;19.42;47.62;100674.03;5141244;27;20836;-44
2022/11/28 11:14:50;;;;;;;;;;;;;;;19.42;47.55;100677.63;5117436;27;20557;-44
2022/11/28 11:17:23;;;;;;;;;;;;;;;19.42;47.55;100671.28;5119338;27;19943;-43
2022/11/28 11:19:48;;;;;;;;;;;;;;;19.40;47.50;100668.81;5118226;27;19963;-45
2022/11/28 11:22:18;;;;;;;;;;;;;;;19.41;47.64;100673.22;5139051;27;19974;-45
2022/11/28 11:24:58;;;;;;;;;;;;;;;19.41;47.79;100675.16;5121237;27;20022;-43
2022/11/28 11:27:23;;;;;;;;;;;;;;;19.41;47.93;100677.91;5122535;27;19969;-44
2022/11/28 11:29:49;;;;;;;;;;;;;;;19.41;47.71;100666.88;5114069;27;20360;-44
2022/11/28 11:32:20;;;;;;;;;;;;;;;19.41;47.46;100669.63;5119878;28;19962;-44
2022/11/28 11:34:46;;;;;;;;;;;;;;;19.40;47.58;100673.50;5119972;27;20399;-43
2022/11/28 11:37:31;;;;;;;;;;;;;;;19.39;47.51;100677.41;5120452;28;20492;-43
2022/11/28 11:39:57;;;;;;;;;;;;;;;19.40;47.44;100673.50;5106473;28;19967;-44
2022/11/28 11:42:25;;;;;;;;;;;;;;;19.39;47.61;100669.13;5118264;27;19927;-43
2022/11/28 11:44:50;;;;;;;;;;;;;;;19.42;47.68;100679.56;5097219;28;19932;-44
2022/11/28 11:47:16;;;;;;;;;;;;;;;19.43;47.73;100675.69;5082410;28;20297;-44
2022/11/28 11:49:44;;;;;;;;;;;;;;;19.41;47.71;100675.97;5090012;28;19924;-43
2022/11/28 11:52:13;;;;;;;;;;;;;;;19.41;47.71;100681.50;5097041;28;19924;-42
2022/11/28 11:54:39;;;;;;;;;;;;;;;19.42;47.95;100682.31;5107764;28;20128;-43
2022/11/28 11:57:04;;;;;;;;;;;;;;;19.40;47.71;100685.38;5093263;28;19931;-42
2022/11/28 11:59:52;;;;;;;;;;;;;;;19.42;47.82;100687.84;5094206;27;20459;-43
2022/11/28 12:02:37;;;;;;;;;;;;;;;19.41;47.84;100698.06;5109901;27;20018;-42
2022/11/28 12:05:04;;;;;;;;;;;;;;;19.41;47.77;100700.84;5097052;28;20071;-44
2022/11/28 12:07:38;;;;;;;;;;;;;;;19.42;47.56;100691.44;5088892;28;19927;-43
2022/11/28 12:10:04;;;;;;;;;;;;;;;19.42;47.47;100696.13;5105425;27;19935;-43
2022/11/28 12:12:30;;;;;;;;;;;;;;;19.43;47.73;100698.63;5107519;27;19931;-45
2022/11/28 12:14:55;;;;;;;;;;;;;;;19.43;47.27;100687.56;5090828;28;20280;-45
2022/11/28 12:17:41;;;;;;;;;;;;;;;19.42;47.10;100696.94;5109491;27;19935;-43
2022/11/28 12:20:38;;;;;;;;;;;;;;;19.44;47.62;100693.91;5104956;28;19927;-42
2022/11/28 12:23:24;;;;;;;;;;;;;;;19.45;47.82;100699.16;5104745;27;19967;-43
2022/11/28 12:25:52;;;;;;;;;;;;;;;19.43;47.83;100690.34;5100831;28;20363;-42
2022/11/28 12:28:37;;;;;;;;;;;;;;;19.44;47.66;100691.97;5114456;27;21744;-42
2022/11/28 12:31:07;;;;;;;;;;;;;;;19.44;47.61;100686.47;5109650;28;19931;-45
2022/11/28 12:33:53;;;;;;;;;;;;;;;19.43;47.59;100684.81;5116227;27;20037;-42
2022/11/28 12:36:38;;;;;;;;;;;;;;;19.45;47.70;100687.28;5099355;28;20014;-44
2022/11/28 12:39:10;;;;;;;;;;;;;;;19.45;47.45;100687.28;5099646;28;19958;-44
2022/11/28 12:41:55;;;;;;;;;;;;;;;19.40;47.21;100684.56;5124926;27;19923;-41
2022/11/28 12:44:25;;;;;;;;;;;;;;;19.39;47.86;100691.22;5102893;28;19970;-42
2022/11/28 12:47:02;;;;;;;;;;;;;;;19.43;47.76;100678.44;5116049;28;19961;-46